sensor_id;sensor_type;location;lat;lon;timestamp;P1;durP1;ratioP1;P2;durP2;ratioP2
8946;SDS011;4508;48.790;9.028;2022-10-16T09:14:45;1.47;;;1.00;;
8946;SDS011;4508;48.790;9.028;2022-10-16T09:17:27;4.72;;;1.10;;
8946;SDS011;4508;48.790;9.028;2022-10-16T09:20:07;1.30;;;1.08;;
8946;SDS011;4508;48.790;9.028;2022-10-16T09:25:17;1.40;;;1.00;;
8946;SDS011;4508;48.790;9.028;2022-10-16T11:52:06;1.15;;;0.90;;
8946;SDS011;4508;48.790;9.028;2022-10-16T12:45:27;1.40;;;0.80;;
8946;SDS011;4508;48.790;9.028;2022-10-16T13:33:31;1.10;;;0.93;;
8946;SDS011;4508;48.790;9.028;2022-10-16T14:08:17;2.70;;;1.13;;
8946;SDS011;4508;48.790;9.028;2022-10-16T14:10:46;2.17;;;1.20;;
8946;SDS011;4508;48.790;9.028;2022-10-16T14:13:17;1.87;;;1.13;;
8946;SDS011;4508;48.790;9.028;2022-10-16T14:15:46;2.15;;;1.17;;
8946;SDS011;4508;48.790;9.028;2022-10-16T14:18:17;2.63;;;1.20;;
8946;SDS011;4508;48.790;9.028;2022-10-16T14:20:46;2.33;;;1.33;;
8946;SDS011;4508;48.790;9.028;2022-10-16T14:23:19;2.60;;;1.13;;
8946;SDS011;4508;48.790;9.028;2022-10-16T14:25:47;3.70;;;1.27;;
8946;SDS011;4508;48.790;9.028;2022-10-16T14:28:17;2.70;;;1.30;;
8946;SDS011;4508;48.790;9.028;2022-10-16T14:30:51;2.28;;;1.40;;
8946;SDS011;4508;48.790;9.028;2022-10-16T14:33:22;1.90;;;1.30;;
8946;SDS011;4508;48.790;9.028;2022-10-16T14:36:02;1.83;;;1.25;;
8946;SDS011;4508;48.790;9.028;2022-10-16T14:38:31;2.57;;;1.40;;
8946;SDS011;4508;48.790;9.028;2022-10-16T14:40:59;2.30;;;1.13;;
8946;SDS011;4508;48.790;9.028;2022-10-16T14:43:32;2.85;;;1.20;;
8946;SDS011;4508;48.790;9.028;2022-10-16T14:46:01;2.53;;;1.40;;
8946;SDS011;4508;48.790;9.028;2022-10-16T14:48:30;1.40;;;1.20;;
8946;SDS011;4508;48.790;9.028;2022-10-16T14:50:58;2.37;;;1.40;;
8946;SDS011;4508;48.790;9.028;2022-10-16T14:53:24;2.50;;;1.20;;
8946;SDS011;4508;48.790;9.028;2022-10-16T14:55:54;2.05;;;1.40;;
8946;SDS011;4508;48.790;9.028;2022-10-16T14:58:23;2.25;;;1.33;;
8946;SDS011;4508;48.790;9.028;2022-10-16T15:00:53;2.42;;;1.20;;
8946;SDS011;4508;48.790;9.028;2022-10-16T15:03:24;1.83;;;1.25;;
8946;SDS011;4508;48.790;9.028;2022-10-16T15:05:53;2.47;;;1.15;;
8946;SDS011;4508;48.790;9.028;2022-10-16T15:08:22;3.83;;;1.30;;
8946;SDS011;4508;48.790;9.028;2022-10-16T15:10:52;2.30;;;1.30;;
8946;SDS011;4508;48.790;9.028;2022-10-16T15:13:22;3.03;;;1.37;;
8946;SDS011;4508;48.790;9.028;2022-10-16T15:15:52;4.57;;;1.40;;
8946;SDS011;4508;48.790;9.028;2022-10-16T15:18:19;2.40;;;1.30;;
8946;SDS011;4508;48.790;9.028;2022-10-16T15:20:48;2.50;;;1.27;;
8946;SDS011;4508;48.790;9.028;2022-10-16T15:23:17;2.97;;;1.20;;
8946;SDS011;4508;48.790;9.028;2022-10-16T15:25:46;4.60;;;1.47;;
8946;SDS011;4508;48.790;9.028;2022-10-16T15:28:15;4.20;;;1.52;;
8946;SDS011;4508;48.790;9.028;2022-10-16T15:30:43;2.30;;;1.35;;
8946;SDS011;4508;48.790;9.028;2022-10-16T15:33:13;2.88;;;1.60;;
8946;SDS011;4508;48.790;9.028;2022-10-16T15:35:41;3.30;;;1.40;;
8946;SDS011;4508;48.790;9.028;2022-10-16T15:38:09;3.83;;;1.33;;
8946;SDS011;4508;48.790;9.028;2022-10-16T15:40:38;2.72;;;1.25;;
8946;SDS011;4508;48.790;9.028;2022-10-16T15:43:05;3.08;;;1.50;;
8946;SDS011;4508;48.790;9.028;2022-10-16T15:45:32;2.92;;;1.50;;
8946;SDS011;4508;48.790;9.028;2022-10-16T15:47:58;3.90;;;1.53;;
8946;SDS011;4508;48.790;9.028;2022-10-16T15:50:27;3.38;;;1.40;;
8946;SDS011;4508;48.790;9.028;2022-10-16T15:52:54;2.33;;;1.45;;
8946;SDS011;4508;48.790;9.028;2022-10-16T15:55:21;3.55;;;1.50;;
8946;SDS011;4508;48.790;9.028;2022-10-16T15:57:48;2.40;;;1.80;;
8946;SDS011;4508;48.790;9.028;2022-10-16T16:00:16;3.33;;;1.70;;
8946;SDS011;4508;48.790;9.028;2022-10-16T16:02:49;3.17;;;1.40;;
8946;SDS011;4508;48.790;9.028;2022-10-16T16:05:17;2.60;;;1.50;;
8946;SDS011;4508;48.790;9.028;2022-10-16T16:07:46;2.83;;;1.40;;
8946;SDS011;4508;48.790;9.028;2022-10-16T16:10:13;3.00;;;1.83;;
8946;SDS011;4508;48.790;9.028;2022-10-16T16:12:40;4.28;;;1.70;;
8946;SDS011;4508;48.790;9.028;2022-10-16T16:15:08;4.63;;;1.70;;
8946;SDS011;4508;48.790;9.028;2022-10-16T16:17:36;3.63;;;1.63;;
8946;SDS011;4508;48.790;9.028;2022-10-16T16:20:03;5.30;;;1.77;;
8946;SDS011;4508;48.790;9.028;2022-10-16T16:22:30;2.55;;;1.60;;
8946;SDS011;4508;48.790;9.028;2022-10-16T16:24:58;2.53;;;1.70;;
8946;SDS011;4508;48.790;9.028;2022-10-16T16:27:25;4.53;;;1.83;;
8946;SDS011;4508;48.790;9.028;2022-10-16T16:29:54;3.70;;;1.80;;
8946;SDS011;4508;48.790;9.028;2022-10-16T16:32:21;4.57;;;1.73;;
8946;SDS011;4508;48.790;9.028;2022-10-16T16:34:48;3.40;;;1.70;;
8946;SDS011;4508;48.790;9.028;2022-10-16T16:37:14;5.75;;;2.55;;
8946;SDS011;4508;48.790;9.028;2022-10-16T16:39:41;3.30;;;1.80;;
8946;SDS011;4508;48.790;9.028;2022-10-16T16:42:09;4.03;;;1.70;;
8946;SDS011;4508;48.790;9.028;2022-10-16T16:44:36;3.15;;;1.75;;
8946;SDS011;4508;48.790;9.028;2022-10-16T16:47:03;2.75;;;1.90;;
8946;SDS011;4508;48.790;9.028;2022-10-16T16:49:30;3.38;;;1.77;;
8946;SDS011;4508;48.790;9.028;2022-10-16T16:51:58;2.63;;;1.60;;
8946;SDS011;4508;48.790;9.028;2022-10-16T16:54:24;3.70;;;1.70;;
8946;SDS011;4508;48.790;9.028;2022-10-16T16:56:51;2.80;;;1.70;;
8946;SDS011;4508;48.790;9.028;2022-10-16T16:59:19;4.30;;;2.00;;
8946;SDS011;4508;48.790;9.028;2022-10-16T17:01:47;4.07;;;1.88;;
8946;SDS011;4508;48.790;9.028;2022-10-16T17:04:14;2.42;;;1.60;;
8946;SDS011;4508;48.790;9.028;2022-10-16T17:06:41;2.85;;;1.63;;
8946;SDS011;4508;48.790;9.028;2022-10-16T17:09:07;4.50;;;1.67;;
8946;SDS011;4508;48.790;9.028;2022-10-16T17:11:37;3.42;;;1.70;;
8946;SDS011;4508;48.790;9.028;2022-10-16T17:14:06;2.33;;;1.55;;
8946;SDS011;4508;48.790;9.028;2022-10-16T17:16:36;3.08;;;1.60;;
8946;SDS011;4508;48.790;9.028;2022-10-16T17:19:05;3.83;;;1.60;;
8946;SDS011;4508;48.790;9.028;2022-10-16T17:21:32;5.43;;;1.70;;
8946;SDS011;4508;48.790;9.028;2022-10-16T17:24:00;3.72;;;1.70;;
8946;SDS011;4508;48.790;9.028;2022-10-16T17:26:27;7.70;;;2.00;;
8946;SDS011;4508;48.790;9.028;2022-10-16T17:28:56;4.28;;;1.95;;
8946;SDS011;4508;48.790;9.028;2022-10-16T17:31:24;6.33;;;2.20;;
8946;SDS011;4508;48.790;9.028;2022-10-16T17:33:53;7.47;;;2.20;;
8946;SDS011;4508;48.790;9.028;2022-10-16T17:36:21;4.45;;;2.22;;
8946;SDS011;4508;48.790;9.028;2022-10-16T17:38:48;6.10;;;2.20;;
8946;SDS011;4508;48.790;9.028;2022-10-16T17:41:15;5.87;;;2.33;;
8946;SDS011;4508;48.790;9.028;2022-10-16T17:43:43;6.25;;;2.33;;
8946;SDS011;4508;48.790;9.028;2022-10-16T17:46:11;4.00;;;2.00;;
8946;SDS011;4508;48.790;9.028;2022-10-16T17:48:39;2.92;;;2.20;;
8946;SDS011;4508;48.790;9.028;2022-10-16T17:51:09;4.00;;;2.22;;
8946;SDS011;4508;48.790;9.028;2022-10-16T17:53:39;4.20;;;2.20;;
8946;SDS011;4508;48.790;9.028;2022-10-16T17:56:06;3.50;;;2.30;;
8946;SDS011;4508;48.790;9.028;2022-10-16T17:58:34;5.32;;;2.10;;
8946;SDS011;4508;48.790;9.028;2022-10-16T18:01:01;4.50;;;2.20;;
8946;SDS011;4508;48.790;9.028;2022-10-16T18:03:37;5.13;;;2.38;;
8946;SDS011;4508;48.790;9.028;2022-10-16T18:06:04;3.43;;;2.10;;
8946;SDS011;4508;48.790;9.028;2022-10-16T18:08:32;3.08;;;1.60;;
8946;SDS011;4508;48.790;9.028;2022-10-16T18:11:00;3.22;;;1.85;;
8946;SDS011;4508;48.790;9.028;2022-10-16T18:13:28;6.63;;;2.80;;
8946;SDS011;4508;48.790;9.028;2022-10-16T18:15:58;2.50;;;1.70;;
8946;SDS011;4508;48.790;9.028;2022-10-16T18:18:25;4.35;;;1.70;;
8946;SDS011;4508;48.790;9.028;2022-10-16T18:20:55;1.80;;;1.70;;
8946;SDS011;4508;48.790;9.028;2022-10-16T18:23:22;2.15;;;1.40;;
8946;SDS011;4508;48.790;9.028;2022-10-16T18:25:50;5.43;;;1.60;;
8946;SDS011;4508;48.790;9.028;2022-10-16T18:28:17;2.05;;;1.42;;
8946;SDS011;4508;48.790;9.028;2022-10-16T18:30:44;3.15;;;1.48;;
8946;SDS011;4508;48.790;9.028;2022-10-16T18:33:11;3.40;;;1.40;;
8946;SDS011;4508;48.790;9.028;2022-10-16T18:35:37;2.25;;;1.20;;
8946;SDS011;4508;48.790;9.028;2022-10-16T18:38:04;3.17;;;1.60;;
8946;SDS011;4508;48.790;9.028;2022-10-16T18:40:32;3.00;;;1.58;;
8946;SDS011;4508;48.790;9.028;2022-10-16T18:43:02;2.10;;;1.50;;
8946;SDS011;4508;48.790;9.028;2022-10-16T18:45:29;3.75;;;1.45;;
8946;SDS011;4508;48.790;9.028;2022-10-16T18:47:55;3.05;;;1.60;;
8946;SDS011;4508;48.790;9.028;2022-10-16T18:50:23;2.90;;;1.55;;
8946;SDS011;4508;48.790;9.028;2022-10-16T18:52:49;2.67;;;1.55;;
8946;SDS011;4508;48.790;9.028;2022-10-16T18:55:17;2.30;;;1.35;;
8946;SDS011;4508;48.790;9.028;2022-10-16T18:57:44;3.30;;;1.40;;
8946;SDS011;4508;48.790;9.028;2022-10-16T19:00:12;3.05;;;1.33;;
8946;SDS011;4508;48.790;9.028;2022-10-16T19:02:39;4.05;;;1.55;;
8946;SDS011;4508;48.790;9.028;2022-10-16T19:05:06;2.22;;;1.50;;
8946;SDS011;4508;48.790;9.028;2022-10-16T19:07:34;3.30;;;1.50;;
8946;SDS011;4508;48.790;9.028;2022-10-16T19:10:00;3.05;;;1.38;;
8946;SDS011;4508;48.790;9.028;2022-10-16T19:12:27;2.70;;;1.40;;
8946;SDS011;4508;48.790;9.028;2022-10-16T19:14:54;2.72;;;1.40;;
8946;SDS011;4508;48.790;9.028;2022-10-16T19:17:23;1.75;;;1.40;;
8946;SDS011;4508;48.790;9.028;2022-10-16T19:19:49;1.67;;;1.48;;
8946;SDS011;4508;48.790;9.028;2022-10-16T19:22:16;2.80;;;1.45;;
8946;SDS011;4508;48.790;9.028;2022-10-16T19:24:54;4.20;;;1.53;;
8946;SDS011;4508;48.790;9.028;2022-10-16T19:27:20;2.88;;;1.40;;
8946;SDS011;4508;48.790;9.028;2022-10-16T19:29:47;3.42;;;1.60;;
8946;SDS011;4508;48.790;9.028;2022-10-16T19:32:14;3.67;;;1.40;;
8946;SDS011;4508;48.790;9.028;2022-10-16T19:34:42;4.00;;;1.48;;
8946;SDS011;4508;48.790;9.028;2022-10-16T19:37:10;2.55;;;1.80;;
8946;SDS011;4508;48.790;9.028;2022-10-16T19:39:36;6.83;;;1.97;;
8946;SDS011;4508;48.790;9.028;2022-10-16T19:42:03;5.72;;;1.70;;
8946;SDS011;4508;48.790;9.028;2022-10-16T19:44:30;5.07;;;1.80;;
8946;SDS011;4508;48.790;9.028;2022-10-16T19:46:56;3.67;;;1.80;;
8946;SDS011;4508;48.790;9.028;2022-10-16T19:49:23;5.15;;;1.70;;
8946;SDS011;4508;48.790;9.028;2022-10-16T19:51:51;2.97;;;1.60;;
8946;SDS011;4508;48.790;9.028;2022-10-16T19:54:18;3.08;;;1.45;;
8946;SDS011;4508;48.790;9.028;2022-10-16T19:56:45;3.63;;;1.55;;
8946;SDS011;4508;48.790;9.028;2022-10-16T19:59:12;2.28;;;1.50;;
8946;SDS011;4508;48.790;9.028;2022-10-16T20:01:43;3.58;;;1.60;;
8946;SDS011;4508;48.790;9.028;2022-10-16T20:04:10;5.50;;;1.80;;
8946;SDS011;4508;48.790;9.028;2022-10-16T20:06:36;3.67;;;1.70;;
8946;SDS011;4508;48.790;9.028;2022-10-16T20:09:04;4.53;;;1.73;;
8946;SDS011;4508;48.790;9.028;2022-10-16T20:11:32;2.65;;;2.00;;
8946;SDS011;4508;48.790;9.028;2022-10-16T20:14:00;3.10;;;1.70;;
8946;SDS011;4508;48.790;9.028;2022-10-16T20:16:28;3.85;;;1.75;;
8946;SDS011;4508;48.790;9.028;2022-10-16T20:18:55;5.55;;;1.80;;
8946;SDS011;4508;48.790;9.028;2022-10-16T20:21:24;4.30;;;1.70;;
8946;SDS011;4508;48.790;9.028;2022-10-16T20:23:51;2.97;;;1.67;;
8946;SDS011;4508;48.790;9.028;2022-10-16T20:26:21;3.40;;;1.70;;
8946;SDS011;4508;48.790;9.028;2022-10-16T20:28:50;3.05;;;1.70;;
8946;SDS011;4508;48.790;9.028;2022-10-16T20:31:18;5.53;;;1.77;;
8946;SDS011;4508;48.790;9.028;2022-10-16T20:33:46;3.03;;;1.70;;
8946;SDS011;4508;48.790;9.028;2022-10-16T20:36:13;4.43;;;1.77;;
8946;SDS011;4508;48.790;9.028;2022-10-16T20:38:41;5.43;;;2.10;;
8946;SDS011;4508;48.790;9.028;2022-10-16T20:41:08;5.33;;;2.03;;
8946;SDS011;4508;48.790;9.028;2022-10-16T20:43:39;5.18;;;1.90;;
8946;SDS011;4508;48.790;9.028;2022-10-16T20:46:08;6.30;;;2.10;;
8946;SDS011;4508;48.790;9.028;2022-10-16T20:48:38;5.07;;;2.20;;
8946;SDS011;4508;48.790;9.028;2022-10-16T20:51:11;3.70;;;1.90;;
8946;SDS011;4508;48.790;9.028;2022-10-16T20:53:39;5.33;;;2.10;;
8946;SDS011;4508;48.790;9.028;2022-10-16T20:56:06;3.10;;;1.73;;
8946;SDS011;4508;48.790;9.028;2022-10-16T20:58:34;4.63;;;1.80;;
8946;SDS011;4508;48.790;9.028;2022-10-16T21:01:05;5.63;;;2.10;;
8946;SDS011;4508;48.790;9.028;2022-10-16T21:03:33;4.72;;;1.80;;
8946;SDS011;4508;48.790;9.028;2022-10-16T21:06:01;5.70;;;1.73;;
8946;SDS011;4508;48.790;9.028;2022-10-16T21:08:28;3.80;;;1.77;;
8946;SDS011;4508;48.790;9.028;2022-10-16T21:10:55;3.85;;;1.80;;
8946;SDS011;4508;48.790;9.028;2022-10-16T21:13:22;2.10;;;1.73;;
8946;SDS011;4508;48.790;9.028;2022-10-16T21:15:48;4.40;;;1.70;;
8946;SDS011;4508;48.790;9.028;2022-10-16T21:18:16;4.07;;;1.70;;
8946;SDS011;4508;48.790;9.028;2022-10-16T21:20:43;3.00;;;1.60;;
8946;SDS011;4508;48.790;9.028;2022-10-16T21:23:10;3.50;;;1.70;;
8946;SDS011;4508;48.790;9.028;2022-10-16T21:25:37;3.30;;;1.60;;
8946;SDS011;4508;48.790;9.028;2022-10-16T21:28:03;5.70;;;1.70;;
8946;SDS011;4508;48.790;9.028;2022-10-16T21:30:30;3.10;;;1.70;;
8946;SDS011;4508;48.790;9.028;2022-10-16T21:32:58;3.53;;;1.70;;
8946;SDS011;4508;48.790;9.028;2022-10-16T21:35:26;4.20;;;1.77;;
8946;SDS011;4508;48.790;9.028;2022-10-16T21:37:52;4.25;;;1.80;;
8946;SDS011;4508;48.790;9.028;2022-10-16T21:40:19;2.00;;;1.50;;
8946;SDS011;4508;48.790;9.028;2022-10-16T21:42:46;4.13;;;1.60;;
8946;SDS011;4508;48.790;9.028;2022-10-16T21:45:12;2.78;;;1.60;;
8946;SDS011;4508;48.790;9.028;2022-10-16T21:47:39;3.15;;;1.73;;
8946;SDS011;4508;48.790;9.028;2022-10-16T21:50:07;2.13;;;1.60;;
8946;SDS011;4508;48.790;9.028;2022-10-16T21:52:35;1.63;;;1.52;;
8946;SDS011;4508;48.790;9.028;2022-10-16T21:55:02;2.05;;;1.50;;
8946;SDS011;4508;48.790;9.028;2022-10-16T21:57:29;4.88;;;1.70;;
8946;SDS011;4508;48.790;9.028;2022-10-16T21:59:56;2.60;;;1.55;;
8946;SDS011;4508;48.790;9.028;2022-10-16T22:02:23;2.57;;;1.40;;
8946;SDS011;4508;48.790;9.028;2022-10-16T22:04:49;1.75;;;1.50;;
8946;SDS011;4508;48.790;9.028;2022-10-16T22:07:16;2.72;;;1.70;;
8946;SDS011;4508;48.790;9.028;2022-10-16T22:09:44;2.42;;;1.70;;
8946;SDS011;4508;48.790;9.028;2022-10-16T22:12:11;3.58;;;1.63;;
8946;SDS011;4508;48.790;9.028;2022-10-16T22:14:43;3.42;;;1.73;;
8946;SDS011;4508;48.790;9.028;2022-10-16T22:17:10;4.15;;;1.95;;
8946;SDS011;4508;48.790;9.028;2022-10-16T22:19:37;2.78;;;1.70;;
8946;SDS011;4508;48.790;9.028;2022-10-16T22:22:03;4.72;;;2.22;;
8946;SDS011;4508;48.790;9.028;2022-10-16T22:24:30;5.43;;;1.80;;
8946;SDS011;4508;48.790;9.028;2022-10-16T22:26:58;5.70;;;2.00;;
8946;SDS011;4508;48.790;9.028;2022-10-16T22:29:25;2.13;;;1.90;;
8946;SDS011;4508;48.790;9.028;2022-10-16T22:31:52;3.87;;;1.80;;
8946;SDS011;4508;48.790;9.028;2022-10-16T22:34:18;4.57;;;2.00;;
8946;SDS011;4508;48.790;9.028;2022-10-16T22:36:47;4.70;;;1.90;;
8946;SDS011;4508;48.790;9.028;2022-10-16T22:39:15;2.78;;;2.00;;
8946;SDS011;4508;48.790;9.028;2022-10-16T22:41:42;5.28;;;2.25;;
8946;SDS011;4508;48.790;9.028;2022-10-16T22:44:11;3.63;;;2.50;;
8946;SDS011;4508;48.790;9.028;2022-10-16T22:46:38;3.55;;;2.30;;
8946;SDS011;4508;48.790;9.028;2022-10-16T22:49:05;3.10;;;2.17;;
8946;SDS011;4508;48.790;9.028;2022-10-16T22:51:32;4.75;;;2.20;;
8946;SDS011;4508;48.790;9.028;2022-10-16T22:53:58;3.33;;;2.50;;
8946;SDS011;4508;48.790;9.028;2022-10-16T22:56:25;3.88;;;2.00;;
8946;SDS011;4508;48.790;9.028;2022-10-16T22:58:52;3.25;;;2.15;;
8946;SDS011;4508;48.790;9.028;2022-10-16T23:01:22;3.50;;;2.10;;
8946;SDS011;4508;48.790;9.028;2022-10-16T23:03:50;3.67;;;2.22;;
8946;SDS011;4508;48.790;9.028;2022-10-16T23:06:17;4.35;;;2.20;;
8946;SDS011;4508;48.790;9.028;2022-10-16T23:08:44;3.35;;;2.17;;
8946;SDS011;4508;48.790;9.028;2022-10-16T23:11:15;5.03;;;2.47;;
8946;SDS011;4508;48.790;9.028;2022-10-16T23:13:41;5.22;;;2.17;;
8946;SDS011;4508;48.790;9.028;2022-10-16T23:16:09;3.25;;;2.30;;
8946;SDS011;4508;48.790;9.028;2022-10-16T23:18:38;5.20;;;2.40;;
8946;SDS011;4508;48.790;9.028;2022-10-16T23:21:06;4.20;;;2.50;;
8946;SDS011;4508;48.790;9.028;2022-10-16T23:23:33;2.78;;;2.47;;
8946;SDS011;4508;48.790;9.028;2022-10-16T23:26:00;2.25;;;1.98;;
8946;SDS011;4508;48.790;9.028;2022-10-16T23:28:27;4.20;;;2.00;;
8946;SDS011;4508;48.790;9.028;2022-10-16T23:30:56;3.08;;;2.20;;
8946;SDS011;4508;48.790;9.028;2022-10-16T23:33:23;4.35;;;2.20;;
8946;SDS011;4508;48.790;9.028;2022-10-16T23:35:51;4.32;;;2.10;;
8946;SDS011;4508;48.790;9.028;2022-10-16T23:38:18;2.90;;;2.10;;
8946;SDS011;4508;48.790;9.028;2022-10-16T23:40:45;3.15;;;2.25;;
8946;SDS011;4508;48.790;9.028;2022-10-16T23:43:11;2.70;;;1.90;;
8946;SDS011;4508;48.790;9.028;2022-10-16T23:45:38;4.05;;;2.03;;
8946;SDS011;4508;48.790;9.028;2022-10-16T23:48:05;5.33;;;2.30;;
8946;SDS011;4508;48.790;9.028;2022-10-16T23:50:31;5.82;;;2.10;;
8946;SDS011;4508;48.790;9.028;2022-10-16T23:53:00;4.90;;;2.40;;
8946;SDS011;4508;48.790;9.028;2022-10-16T23:55:27;4.90;;;2.40;;
8946;SDS011;4508;48.790;9.028;2022-10-16T23:57:53;2.95;;;2.10;;
